createdAt,value
2023-05-10T00:01:05.732Z,100371.28
2023-05-10T00:03:33.256Z,100372.91
2023-05-10T00:06:00.864Z,100371.28
2023-05-10T00:08:28.122Z,100368.16
2023-05-10T00:10:55.637Z,100376.47
2023-05-10T00:13:24.686Z,100382.53
2023-05-10T00:15:52.132Z,100375.00
2023-05-10T00:18:19.820Z,100381.13
2023-05-10T00:20:47.221Z,100365.03
2023-05-10T00:23:14.703Z,100367.59
2023-05-10T00:25:42.089Z,100370.94
2023-05-10T00:28:09.477Z,100370.16
2023-05-10T00:30:40.152Z,100376.28
2023-05-10T00:33:08.014Z,100372.34
2023-05-10T00:35:35.385Z,100381.97
2023-05-10T00:38:02.800Z,100371.88
2023-05-10T00:40:31.673Z,100376.41
2023-05-10T00:43:04.186Z,100377.44
2023-05-10T00:45:32.229Z,100376.63
2023-05-10T00:48:03.489Z,100373.38
2023-05-10T00:50:31.975Z,100379.41
2023-05-10T00:53:00.201Z,100379.53
2023-05-10T00:55:28.045Z,100381.03
2023-05-10T00:57:55.484Z,100378.50
2023-05-10T01:00:23.093Z,100374.97
2023-05-10T01:02:51.477Z,100382.41
2023-05-10T01:05:20.671Z,100374.78
2023-05-10T01:07:48.218Z,100383.09
2023-05-10T01:10:16.006Z,100377.44
2023-05-10T01:12:47.497Z,100377.44
2023-05-10T01:15:17.736Z,100368.50
2023-05-10T01:17:48.386Z,100370.13
2023-05-10T01:20:16.508Z,100365.38
2023-05-10T01:23:12.007Z,100368.88
2023-05-10T01:25:58.580Z,100362.50
2023-05-10T01:28:49.562Z,100366.22
2023-05-10T01:31:30.288Z,100363.75
2023-05-10T01:34:05.471Z,100369.69
2023-05-10T01:36:41.226Z,100355.69
2023-05-10T01:39:17.209Z,100362.72
2023-05-10T01:41:50.778Z,100357.63
2023-05-10T01:44:24.196Z,100362.03
2023-05-10T01:46:58.555Z,100357.28
2023-05-10T01:49:32.030Z,100360.78
2023-05-10T01:52:05.088Z,100359.38
2023-05-10T01:54:35.084Z,100366.00
2023-05-10T01:57:06.665Z,100361.81
2023-05-10T01:59:40.269Z,100371.31
2023-05-10T02:02:13.138Z,100365.63
2023-05-10T02:04:43.262Z,100356.50
2023-05-10T02:07:12.000Z,100360.78
2023-05-10T02:09:39.821Z,100365.63
2023-05-10T02:12:09.540Z,100360.44
2023-05-10T02:14:38.947Z,100355.91
2023-05-10T02:17:08.915Z,100365.75
2023-05-10T02:19:39.636Z,100355.53
2023-05-10T02:22:10.184Z,100352.06
2023-05-10T02:24:38.850Z,100354.63
2023-05-10T02:27:07.405Z,100352.19
2023-05-10T02:29:35.383Z,100348.16
2023-05-10T02:32:03.688Z,100355.34
2023-05-10T02:34:32.940Z,100354.53
2023-05-10T02:37:02.999Z,100348.59
2023-05-10T02:39:33.313Z,100355.53
2023-05-10T02:42:03.371Z,100339.34
2023-05-10T02:44:32.324Z,100353.69
2023-05-10T02:47:00.041Z,100343.50
2023-05-10T02:49:27.581Z,100342.81
2023-05-10T02:52:03.564Z,100343.50
2023-05-10T02:54:38.124Z,100348.03
2023-05-10T02:57:07.045Z,100342.13
2023-05-10T02:59:34.560Z,100339.56
2023-05-10T03:02:03.151Z,100345.25
2023-05-10T03:04:30.869Z,100339.13
2023-05-10T03:06:59.352Z,100345.03
2023-05-10T03:09:27.641Z,100342.22
2023-05-10T03:12:05.113Z,100343.50
2023-05-10T03:14:46.758Z,100340.72
2023-05-10T03:17:23.624Z,100345.34
2023-05-10T03:19:55.508Z,100337.34
2023-05-10T03:22:27.668Z,100336.16
2023-05-10T03:24:58.809Z,100336.72
2023-05-10T03:27:32.382Z,100340.69
2023-05-10T03:30:03.565Z,100339.75
2023-05-10T03:32:35.873Z,100344.63
2023-05-10T03:35:08.553Z,100343.59
2023-05-10T03:37:36.779Z,100344.28
2023-05-10T03:40:05.360Z,100349.03
2023-05-10T03:42:36.818Z,100352.03
2023-05-10T03:45:04.970Z,100339.97
2023-05-10T03:47:33.992Z,100339.47
2023-05-10T03:50:01.688Z,100341.56
2023-05-10T03:52:33.220Z,100343.63
2023-05-10T03:55:00.776Z,100333.06
2023-05-10T03:57:28.372Z,100339.31
2023-05-10T03:59:57.175Z,100335.44
2023-05-10T04:02:24.789Z,100334.28
2023-05-10T04:04:52.695Z,100340.75
2023-05-10T04:07:20.418Z,100335.28
2023-05-10T04:09:48.527Z,100333.00
2023-05-10T04:12:15.961Z,100331.47
2023-05-10T04:14:43.673Z,100331.00
2023-05-10T04:17:12.603Z,100327.78
2023-05-10T04:19:39.974Z,100337.25
2023-05-10T04:22:07.360Z,100330.72
2023-05-10T04:24:34.804Z,100325.22
2023-05-10T04:27:02.340Z,100325.50
2023-05-10T04:29:29.993Z,100336.84
2023-05-10T04:31:57.795Z,100329.63
2023-05-10T04:34:26.739Z,100322.38
2023-05-10T04:36:56.301Z,100323.59
2023-05-10T04:39:23.587Z,100326.44
2023-05-10T04:41:50.914Z,100325.94
2023-05-10T04:44:18.327Z,100325.41
2023-05-10T04:46:45.688Z,100318.44
2023-05-10T04:49:13.287Z,100322.25
2023-05-10T04:51:42.083Z,100324.84
2023-05-10T04:54:12.143Z,100321.09
2023-05-10T04:56:39.650Z,100316.22
2023-05-10T04:59:07.163Z,100318.97
2023-05-10T05:01:34.849Z,100323.28
2023-05-10T05:04:02.579Z,100314.13
2023-05-10T05:06:29.996Z,100308.84
2023-05-10T05:08:58.782Z,100313.31
2023-05-10T05:11:27.010Z,100316.81
2023-05-10T05:13:54.335Z,100318.53
2023-05-10T05:16:21.769Z,100300.59
2023-05-10T05:18:49.239Z,100308.00
2023-05-10T05:21:17.504Z,100310.38
2023-05-10T05:23:45.532Z,100304.97
2023-05-10T05:26:14.454Z,100302.91
2023-05-10T05:28:42.109Z,100297.75
2023-05-10T05:31:10.298Z,100300.25
2023-05-10T05:33:38.138Z,100297.03
2023-05-10T05:36:06.761Z,100297.50
2023-05-10T05:38:34.483Z,100299.06
2023-05-10T05:41:01.831Z,100294.53
2023-05-10T05:43:30.682Z,100298.63
2023-05-10T05:45:59.165Z,100296.00
2023-05-10T05:48:27.392Z,100289.56
2023-05-10T05:50:57.139Z,100286.25
2023-05-10T05:53:24.660Z,100287.28
2023-05-10T05:55:54.203Z,100288.28
2023-05-10T05:58:22.041Z,100280.50
2023-05-10T06:00:51.428Z,100282.16
2023-05-10T06:03:19.140Z,100279.53
2023-05-10T06:05:46.842Z,100284.72
2023-05-10T06:08:14.147Z,100278.00
2023-05-10T06:10:41.400Z,100279.19
2023-05-10T06:13:08.834Z,100270.41
2023-05-10T06:15:36.247Z,100278.69
2023-05-10T06:18:05.282Z,100280.19
2023-05-10T06:20:33.009Z,100269.94
2023-05-10T06:23:00.710Z,100267.59
2023-05-10T06:25:27.911Z,100273.06
2023-05-10T06:27:58.515Z,100270.19
2023-05-10T06:30:29.684Z,100272.78
2023-05-10T06:32:58.185Z,100272.84
2023-05-10T06:35:27.422Z,100274.28
2023-05-10T06:37:55.161Z,100270.16
2023-05-10T06:40:22.543Z,100265.31
2023-05-10T06:42:50.369Z,100266.16
2023-05-10T06:45:18.984Z,100266.28
2023-05-10T06:47:46.952Z,100267.25
2023-05-10T06:50:14.582Z,100264.50
2023-05-10T06:52:44.127Z,100263.22
2023-05-10T06:55:12.206Z,100263.72
2023-05-10T06:57:39.541Z,100260.66
2023-05-10T07:00:08.341Z,100266.94
2023-05-10T07:02:35.582Z,100268.88
2023-05-10T07:05:03.655Z,100264.69
2023-05-10T07:07:32.855Z,100256.59
2023-05-10T07:10:01.945Z,100252.50
2023-05-10T07:12:32.162Z,100260.03
2023-05-10T07:14:59.628Z,100252.91
2023-05-10T07:17:27.254Z,100244.34
2023-05-10T07:19:54.645Z,100254.34
2023-05-10T07:22:22.065Z,100248.66
2023-05-10T07:24:49.355Z,100244.47
2023-05-10T07:27:18.060Z,100247.50
2023-05-10T07:29:45.477Z,100239.63
2023-05-10T07:32:12.867Z,100233.94
2023-05-10T07:34:40.408Z,100247.44
2023-05-10T07:37:08.527Z,100244.25
2023-05-10T07:39:35.910Z,100244.25
2023-05-10T07:42:04.118Z,100238.94
2023-05-10T07:44:32.881Z,100238.38
2023-05-10T07:47:00.625Z,100235.69
2023-05-10T07:49:28.177Z,100227.03
2023-05-10T07:51:55.491Z,100228.53
2023-05-10T07:54:23.046Z,100221.59
2023-05-10T07:56:50.644Z,100223.28
2023-05-10T07:59:18.483Z,100225.78
2023-05-10T08:01:47.494Z,100219.44
2023-05-10T08:04:14.903Z,100221.06
2023-05-10T08:06:42.316Z,100221.66
2023-05-10T08:09:10.183Z,100213.09
2023-05-10T08:11:37.945Z,100212.38
2023-05-10T08:14:05.476Z,100209.44
2023-05-10T08:16:33.614Z,100205.00
2023-05-10T08:19:02.638Z,100207.84
2023-05-10T08:21:30.492Z,100207.47
2023-05-10T08:23:58.858Z,100201.56
2023-05-10T08:26:27.060Z,100192.13
2023-05-10T08:28:54.698Z,100195.13
2023-05-10T08:31:22.520Z,100183.69
2023-05-10T08:33:49.909Z,100189.00
2023-05-10T08:36:22.667Z,100184.63
2023-05-10T08:38:52.173Z,100179.34
2023-05-10T08:41:22.047Z,100183.34
2023-05-10T08:43:51.455Z,100184.78
2023-05-10T08:46:20.649Z,100179.69
2023-05-10T08:48:49.482Z,100179.59
2023-05-10T08:51:22.350Z,100169.06
2023-05-10T08:53:50.087Z,100178.78
2023-05-10T08:56:18.905Z,100173.53
2023-05-10T08:58:46.411Z,100178.09
2023-05-10T09:01:15.010Z,100170.75
2023-05-10T09:03:43.064Z,100170.38
2023-05-10T09:06:12.638Z,100181.16
2023-05-10T09:08:42.763Z,100174.16
2023-05-10T09:11:11.333Z,100173.78
2023-05-10T09:13:38.999Z,100167.28
2023-05-10T09:16:17.492Z,100171.00
2023-05-10T09:18:51.018Z,100165.28
2023-05-10T09:21:20.455Z,100168.91
2023-05-10T09:23:51.338Z,100151.09
2023-05-10T09:26:23.983Z,100165.44
2023-05-10T09:28:56.609Z,100152.38
2023-05-10T09:31:26.292Z,100149.16
2023-05-10T09:33:54.349Z,100144.16
2023-05-10T09:36:21.812Z,100142.69
2023-05-10T09:38:52.914Z,100143.59
2023-05-10T09:41:22.608Z,100136.25
2023-05-10T09:43:51.004Z,100130.66
2023-05-10T09:46:18.370Z,100133.13
2023-05-10T09:48:48.001Z,100131.91
2023-05-10T09:51:21.462Z,100117.53
2023-05-10T09:54:09.699Z,100128.91
2023-05-10T09:56:39.961Z,100134.03
2023-05-10T09:59:09.208Z,100129.09
2023-05-10T10:01:37.389Z,100117.88
2023-05-10T10:04:06.371Z,100129.97
2023-05-10T10:06:37.974Z,100125.88
2023-05-10T10:09:07.343Z,100116.44
2023-05-10T10:11:36.319Z,100117.63
2023-05-10T10:14:04.051Z,100113.19
2023-05-10T10:16:32.630Z,100109.66
2023-05-10T10:19:01.880Z,100098.19
2023-05-10T10:21:29.873Z,100101.00
2023-05-10T10:23:57.391Z,100103.41
2023-05-10T10:26:26.540Z,100102.56
2023-05-10T10:29:10.005Z,100090.19
2023-05-10T10:31:45.693Z,100086.75
2023-05-10T10:34:28.034Z,100073.09
2023-05-10T10:36:56.757Z,100077.53
2023-05-10T10:39:28.138Z,100086.59
2023-05-10T10:41:58.580Z,100079.44
2023-05-10T10:44:41.504Z,100079.44
2023-05-10T10:47:32.224Z,100073.13
2023-05-10T10:50:07.566Z,100074.78
2023-05-10T10:52:36.324Z,100074.03
2023-05-10T10:55:07.345Z,100072.25
2023-05-10T10:57:45.958Z,100073.03
2023-05-10T11:00:25.532Z,100069.41
2023-05-10T11:02:54.313Z,100068.41
2023-05-10T11:05:27.080Z,100072.16
2023-05-10T11:07:55.332Z,100074.31
2023-05-10T11:10:22.696Z,100068.75
2023-05-10T11:13:01.955Z,100049.00
2023-05-10T11:15:33.017Z,100051.00
2023-05-10T11:18:01.219Z,100051.16
2023-05-10T11:20:34.420Z,100059.41
2023-05-10T11:23:17.064Z,100048.47
2023-05-10T11:25:45.656Z,100051.88
2023-05-10T11:28:14.725Z,100042.53
2023-05-10T11:30:44.776Z,100044.22
2023-05-10T11:33:17.228Z,100047.88
2023-05-10T11:35:45.035Z,100043.84
2023-05-10T11:38:13.324Z,100044.44
2023-05-10T11:40:41.835Z,100043.28
2023-05-10T11:43:11.580Z,100038.94
2023-05-10T11:45:42.417Z,100036.69
2023-05-10T11:48:09.969Z,100036.13
2023-05-10T11:50:37.619Z,100034.50
2023-05-10T11:53:05.024Z,100032.91
2023-05-10T11:55:35.281Z,100023.09
2023-05-10T11:58:03.740Z,100023.81
2023-05-10T12:00:32.678Z,100022.19
2023-05-10T12:03:02.395Z,100017.38
2023-05-10T12:05:34.007Z,100013.81
2023-05-10T12:08:14.780Z,100013.44
2023-05-10T12:10:42.738Z,100008.91
2023-05-10T12:13:16.460Z,99999.59
2023-05-10T12:15:44.629Z,100004.94
2023-05-10T12:18:14.781Z,100014.06
2023-05-10T12:20:42.628Z,100002.00
2023-05-10T12:23:11.090Z,100003.72
2023-05-10T12:25:39.450Z,99997.00
2023-05-10T12:28:08.864Z,100001.88
2023-05-10T12:30:38.058Z,99998.56
2023-05-10T12:33:09.818Z,99991.50
2023-05-10T12:35:46.708Z,99995.06
2023-05-10T12:38:30.615Z,99991.94
2023-05-10T12:40:59.201Z,99991.94
2023-05-10T12:43:26.789Z,100000.94
2023-05-10T12:45:54.208Z,99988.22
2023-05-10T12:48:21.561Z,99988.03
2023-05-10T12:50:50.488Z,99986.25
2023-05-10T12:53:18.459Z,99985.25
2023-05-10T12:55:45.949Z,99986.09
2023-05-10T12:58:17.927Z,99988.09
2023-05-10T13:00:48.541Z,99984.50
2023-05-10T13:03:16.909Z,99987.69
2023-05-10T13:05:44.559Z,99988.25
2023-05-10T13:08:16.472Z,99984.84
2023-05-10T13:10:49.975Z,99974.44
2023-05-10T13:13:17.301Z,99976.28
2023-05-10T13:15:44.850Z,99970.09
2023-05-10T13:18:12.375Z,99974.09
2023-05-10T13:20:39.849Z,99981.06
2023-05-10T13:23:07.382Z,99970.09
2023-05-10T13:25:36.586Z,99974.91
2023-05-10T13:28:04.045Z,99972.09
2023-05-10T13:30:33.386Z,99966.84
2023-05-10T13:33:01.123Z,99971.44
2023-05-10T13:35:30.650Z,99975.13
2023-05-10T13:38:01.096Z,99975.09
2023-05-10T13:40:31.587Z,99973.53
2023-05-10T13:43:00.617Z,99965.88
2023-05-10T13:45:28.451Z,99961.44
2023-05-10T13:48:01.028Z,99964.66
2023-05-10T13:50:28.509Z,99965.03
2023-05-10T13:52:56.595Z,99970.56
2023-05-10T13:55:24.350Z,99973.41
2023-05-10T13:57:51.862Z,99971.44
2023-05-10T14:00:21.240Z,99970.47
2023-05-10T14:02:48.750Z,99967.50
2023-05-10T14:05:17.066Z,99972.59
2023-05-10T14:07:45.507Z,99963.78
2023-05-10T14:10:12.930Z,99961.03
2023-05-10T14:12:40.383Z,99966.63
2023-05-10T14:15:11.140Z,99963.06
2023-05-10T14:17:40.202Z,99963.06
2023-05-10T14:20:08.813Z,99963.44
2023-05-10T14:22:36.610Z,99963.44
2023-05-10T14:25:07.813Z,99969.34
2023-05-10T14:27:35.458Z,99958.00
2023-05-10T14:30:02.878Z,99958.59
2023-05-10T14:32:33.337Z,99968.63
2023-05-10T14:35:02.266Z,99959.22
2023-05-10T14:37:32.121Z,99964.44
2023-05-10T14:40:01.091Z,99953.59
2023-05-10T14:42:30.651Z,99965.00
2023-05-10T14:44:58.811Z,99954.09
2023-05-10T14:47:26.089Z,99950.00
2023-05-10T14:49:53.722Z,99946.81
2023-05-10T14:52:24.864Z,99943.97
2023-05-10T14:54:52.219Z,99949.22
2023-05-10T14:57:19.577Z,99948.13
2023-05-10T14:59:46.992Z,99934.97
2023-05-10T15:02:26.416Z,99940.34
2023-05-10T15:04:55.916Z,99942.53
2023-05-10T15:07:25.082Z,99938.19
2023-05-10T15:09:55.518Z,99946.09
2023-05-10T15:12:22.957Z,99951.66
2023-05-10T15:14:58.791Z,99952.78
2023-05-10T15:17:49.089Z,99926.28
2023-05-10T15:21:04.770Z,99941.78
2023-05-10T15:24:00.958Z,99948.09
2023-05-10T15:26:27.401Z,99934.03
2023-05-10T15:28:58.959Z,99935.56
2023-05-10T15:32:18.498Z,99940.13
2023-05-10T15:34:46.149Z,99944.03
2023-05-10T15:37:13.794Z,99939.22
2023-05-10T15:39:42.583Z,99938.88
2023-05-10T15:42:09.995Z,99938.50
2023-05-10T15:44:39.498Z,99934.56
2023-05-10T15:47:07.037Z,99940.56
2023-05-10T15:49:34.932Z,99936.72
2023-05-10T15:52:02.473Z,99935.28
2023-05-10T15:54:45.049Z,99928.53
2023-05-10T15:57:12.654Z,99939.66
2023-05-10T15:59:39.875Z,99927.38
2023-05-10T16:02:35.402Z,99933.50
2023-05-10T16:05:03.170Z,99934.06
2023-05-10T16:07:32.641Z,99927.66
2023-05-10T16:10:06.641Z,99932.91
2023-05-10T16:12:34.438Z,99931.66
2023-05-10T16:24:30.516Z,99935.75
2023-05-10T16:27:02.585Z,99928.63
2023-05-10T16:30:40.046Z,99926.75
2023-05-10T16:36:18.863Z,99924.88
2023-05-10T16:38:46.761Z,99934.19
2023-05-10T16:41:14.036Z,99938.41
2023-05-10T16:43:47.184Z,99929.84
2023-05-10T16:46:21.186Z,99931.84
2023-05-10T16:48:56.068Z,99931.56
2023-05-10T16:51:23.690Z,99931.94
2023-05-10T16:53:51.142Z,99933.06
2023-05-10T16:56:18.844Z,99932.28
2023-05-10T16:58:51.697Z,99935.66
2023-05-10T17:08:48.012Z,99921.50
2023-05-10T17:11:27.702Z,99916.72
2023-05-10T17:13:56.616Z,99930.69
2023-05-10T17:16:24.384Z,99941.44
2023-05-10T17:18:51.888Z,99937.91
2023-05-10T17:25:50.186Z,99943.59
2023-05-10T17:32:41.444Z,99914.41
2023-05-10T17:36:01.906Z,99917.88
2023-05-10T17:38:29.656Z,99949.44
2023-05-10T17:40:57.170Z,99944.78
2023-05-10T17:43:26.173Z,99953.84
2023-05-10T17:45:53.811Z,99940.19
2023-05-10T17:48:23.152Z,99957.19
2023-05-10T17:50:51.097Z,99953.03
2023-05-10T17:53:19.513Z,99955.69
2023-05-10T17:55:47.173Z,99956.03
2023-05-10T17:58:14.536Z,99955.56
2023-05-10T18:00:41.950Z,99964.59
2023-05-10T18:03:11.822Z,99955.44
2023-05-10T18:05:40.942Z,99957.75
2023-05-10T18:08:08.787Z,99960.81
2023-05-10T18:10:38.159Z,99951.19
2023-05-10T18:13:08.946Z,99959.28
2023-05-10T18:15:36.565Z,99965.28
2023-05-10T18:18:04.772Z,99959.03
2023-05-10T18:20:32.577Z,99964.34
2023-05-10T18:23:01.523Z,99965.78
2023-05-10T18:25:29.280Z,99959.53
2023-05-10T18:27:56.880Z,99953.91
2023-05-10T18:30:24.301Z,99965.69
2023-05-10T18:32:51.742Z,99958.00
2023-05-10T18:35:19.649Z,99955.75
2023-05-10T18:37:47.483Z,99953.50
2023-05-10T18:40:20.744Z,99961.06
2023-05-10T18:42:50.185Z,99966.38
2023-05-10T18:45:18.213Z,99952.22
2023-05-10T18:47:56.003Z,99962.38
2023-05-10T18:50:25.774Z,99960.94
2023-05-10T18:56:36.993Z,99959.38
2023-05-10T18:59:06.030Z,99960.81
2023-05-10T19:01:36.735Z,99955.22
2023-05-10T19:04:09.847Z,99968.69
2023-05-10T19:06:37.391Z,99947.19
2023-05-10T19:09:05.095Z,99965.50
2023-05-10T19:11:34.546Z,99968.88
2023-05-10T19:14:05.886Z,99972.88
2023-05-10T19:24:26.072Z,99957.28
2023-05-10T19:26:53.793Z,99955.19
2023-05-10T19:29:23.373Z,99964.19
2023-05-10T19:31:52.544Z,99966.28
2023-05-10T19:34:20.504Z,99964.69
2023-05-10T19:36:51.356Z,99965.47
2023-05-10T19:39:18.754Z,99960.53
2023-05-10T19:41:47.963Z,99954.56
2023-05-10T19:44:15.295Z,99958.09
2023-05-10T19:46:44.452Z,99962.94
2023-05-10T19:49:11.787Z,99964.69
2023-05-10T19:51:39.210Z,99958.44
2023-05-10T19:54:06.675Z,99961.47
2023-05-10T19:56:34.298Z,99957.16
2023-05-10T19:59:03.593Z,99966.28
2023-05-10T20:01:32.855Z,99959.38
2023-05-10T20:04:02.124Z,99955.03
2023-05-10T20:06:29.603Z,99965.47
2023-05-10T20:08:56.899Z,99960.53
2023-05-10T20:11:24.186Z,99955.22
2023-05-10T20:13:51.408Z,99954.72
2023-05-10T20:16:18.927Z,99958.91
2023-05-10T20:18:46.826Z,99954.03
2023-05-10T20:21:15.731Z,99958.69
2023-05-10T20:23:43.944Z,99945.19
2023-05-10T20:26:11.306Z,99957.41
2023-05-10T20:28:38.664Z,99957.25
2023-05-10T20:31:06.146Z,99952.09
2023-05-10T20:33:33.616Z,99954.69
2023-05-10T20:36:01.041Z,99964.00
2023-05-10T20:38:29.934Z,99959.97
2023-05-10T20:40:57.427Z,99958.69
2023-05-10T20:43:25.023Z,99957.06
2023-05-10T20:45:54.192Z,99960.28
2023-05-10T20:48:21.792Z,99960.13
2023-05-10T20:50:49.226Z,99954.19
2023-05-10T20:53:18.608Z,99956.44
2023-05-10T20:55:47.406Z,99954.16
2023-05-10T20:58:14.773Z,99961.84
2023-05-10T21:00:42.344Z,99959.56
2023-05-10T21:03:09.800Z,99967.59
2023-05-10T21:05:37.284Z,99958.53
2023-05-10T21:08:04.829Z,99964.78
2023-05-10T21:10:32.204Z,99956.59
2023-05-10T21:13:01.244Z,99960.09
2023-05-10T21:15:28.929Z,99962.19
2023-05-10T21:17:56.634Z,99964.91
2023-05-10T21:20:24.031Z,99958.66
2023-05-10T21:22:51.446Z,99958.75
2023-05-10T21:25:19.158Z,99962.75
2023-05-10T21:27:48.418Z,99955.19
2023-05-10T21:30:17.543Z,99954.25
2023-05-10T21:32:45.119Z,99961.13
2023-05-10T21:35:12.561Z,99969.63
2023-05-10T21:37:40.182Z,99972.00
2023-05-10T21:40:08.399Z,99970.41
2023-05-10T21:42:35.793Z,99962.84
2023-05-10T21:45:04.013Z,99965.66
2023-05-10T21:47:34.229Z,99960.81
2023-05-10T21:50:01.884Z,99972.69
2023-05-10T21:52:31.669Z,99959.06
2023-05-10T21:54:59.181Z,99966.59
2023-05-10T21:57:26.794Z,99969.31
2023-05-10T21:59:54.284Z,99969.31
2023-05-10T22:02:21.818Z,99962.44
2023-05-10T22:04:50.809Z,99968.72
2023-05-10T22:07:18.272Z,99971.66
2023-05-10T22:09:45.722Z,99965.13
2023-05-10T22:12:13.255Z,99964.53
2023-05-10T22:14:40.656Z,99968.91
2023-05-10T22:17:08.342Z,99972.66
2023-05-10T22:19:35.861Z,99966.25
2023-05-10T22:22:04.815Z,99967.44
2023-05-10T22:24:32.372Z,99971.16
2023-05-10T22:26:59.876Z,99971.50
2023-05-10T22:29:27.497Z,99961.25
2023-05-10T22:31:55.050Z,99961.25
2023-05-10T22:34:22.767Z,99960.56
2023-05-10T22:36:50.659Z,99955.75
2023-05-10T22:39:19.699Z,99963.59
2023-05-10T22:41:47.009Z,99957.66
2023-05-10T22:44:14.475Z,99955.56
2023-05-10T22:46:41.767Z,99965.34
2023-05-10T22:49:09.806Z,99960.41
2023-05-10T22:51:37.503Z,99965.00
2023-05-10T22:54:05.185Z,99971.41
2023-05-10T22:56:34.191Z,99975.34
2023-05-10T22:59:01.657Z,99968.91
2023-05-10T23:01:29.722Z,99971.41
2023-05-10T23:03:57.230Z,99967.03
2023-05-10T23:06:24.740Z,99966.97
2023-05-10T23:08:52.188Z,99971.06
2023-05-10T23:11:19.725Z,99968.94
2023-05-10T23:13:48.796Z,99972.00
2023-05-10T23:16:16.183Z,99973.63
2023-05-10T23:18:43.712Z,99973.63
2023-05-10T23:21:11.297Z,99967.88
2023-05-10T23:23:38.796Z,99972.31
2023-05-10T23:26:06.385Z,99971.00
2023-05-10T23:28:33.816Z,99971.72
2023-05-10T23:31:02.642Z,99968.31
2023-05-10T23:33:30.173Z,99962.00
2023-05-10T23:35:57.472Z,99964.19
2023-05-10T23:38:24.909Z,99975.81
2023-05-10T23:40:52.367Z,99971.31
2023-05-10T23:43:20.078Z,99972.94
2023-05-10T23:45:53.899Z,99963.47
2023-05-10T23:48:23.223Z,99965.06
2023-05-10T23:50:50.875Z,99969.94
2023-05-10T23:53:18.405Z,99959.69
2023-05-10T23:55:45.786Z,99960.75
2023-05-10T23:58:13.204Z,99965.66
